Time;durP1;ratioP1;P1;durP2;ratioP2;P2;SDS_P1;SDS_P2;PMS_P1;PMS_P2;Temp;Humidity;BMP_temperature;BMP_pressure;BME280_temperature;BME280_humidity;BME280_pressure;Samples;Min_cycle;Max_cycle;Signal;HPM_P1;HPM_P2
2023/03/24 00:00:46;;;;;;;10.85;3.03;;;;;;;;;;6272676;22;20031;-84
2023/03/24 00:03:15;;;;;;;11.65;3.17;;;;;;;;;;6272477;22;20114;-84
2023/03/24 00:05:43;;;;;;;8.43;2.88;;;;;;;;;;6269218;22;20260;-83
2023/03/24 00:08:09;;;;;;;9.40;3.25;;;;;;;;;;6271870;22;20031;-83
2023/03/24 00:10:36;;;;;;;7.47;2.40;;;;;;;;;;6273452;22;20995;-84
2023/03/24 00:13:02;;;;;;;10.93;2.88;;;;;;;;;;6270744;22;20024;-82
2023/03/24 00:15:29;;;;;;;8.70;2.78;;;;;;;;;;6272203;22;20028;-82
2023/03/24 00:17:56;;;;;;;9.82;2.80;;;;;;;;;;6270334;22;20020;-83
2023/03/24 00:20:25;;;;;;;8.98;2.50;;;;;;;;;;6268955;22;20451;-82
2023/03/24 00:22:55;;;;;;;8.80;2.80;;;;;;;;;;6271065;22;20682;-83
2023/03/24 00:25:23;;;;;;;10.90;2.88;;;;;;;;;;6269895;22;20074;-81
2023/03/24 00:27:50;;;;;;;9.60;2.53;;;;;;;;;;6267996;22;20034;-84
2023/03/24 00:30:17;;;;;;;8.05;2.80;;;;;;;;;;6271538;22;20031;-83
2023/03/24 00:32:44;;;;;;;6.22;2.60;;;;;;;;;;6269829;22;20020;-83
2023/03/24 00:35:12;;;;;;;6.45;2.53;;;;;;;;;;6268298;22;20024;-83
2023/03/24 00:37:40;;;;;;;8.88;2.78;;;;;;;;;;6270900;22;20495;-81
2023/03/24 00:40:11;;;;;;;8.18;2.78;;;;;;;;;;6271364;22;20098;-82
2023/03/24 00:42:44;;;;;;;9.40;3.22;;;;;;;;;;6270839;22;20385;-82
2023/03/24 00:45:13;;;;;;;9.25;3.10;;;;;;;;;;6270739;22;20024;-83
2023/03/24 00:47:40;;;;;;;10.77;3.05;;;;;;;;;;6271175;22;20024;-83
2023/03/24 00:50:08;;;;;;;6.25;2.88;;;;;;;;;;6270891;22;20008;-83
2023/03/24 00:52:34;;;;;;;10.23;2.78;;;;;;;;;;6271915;22;20020;-83
2023/03/24 00:55:02;;;;;;;10.55;3.20;;;;;;;;;;6270714;22;21031;-83
2023/03/24 00:57:33;;;;;;;7.05;3.13;;;;;;;;;;6270507;22;20047;-83
2023/03/24 01:00:05;;;;;;;;;;;;;;;;;;6270755;22;20075;-82
2023/03/24 01:02:32;;;;;;;8.07;2.85;;;;;;;;;;6269675;22;45738;-82
2023/03/24 01:05:00;;;;;;;6.25;2.85;;;;;;;;;;6269335;22;20086;-83
2023/03/24 01:07:28;;;;;;;7.95;3.08;;;;;;;;;;6269392;22;20069;-83
2023/03/24 01:09:58;;;;;;;6.25;2.88;;;;;;;;;;6270997;22;20028;-84
2023/03/24 01:12:36;;;;;;;10.15;3.13;;;;;;;;;;6270504;22;20020;-84
2023/03/24 01:15:04;;;;;;;9.77;2.90;;;;;;;;;;6267869;22;20039;-84
2023/03/24 01:17:30;;;;;;;8.00;3.05;;;;;;;;;;6271211;22;20062;-84
2023/03/24 01:19:57;;;;;;;8.82;2.75;;;;;;;;;;6272465;22;20024;-84
2023/03/24 01:22:36;;;;;;;6.63;2.97;;;;;;;;;;6272864;22;20032;-83
2023/03/24 01:25:03;;;;;;;10.30;3.10;;;;;;;;;;6273648;22;20108;-84
2023/03/24 01:27:30;;;;;;;8.38;2.92;;;;;;;;;;6271391;22;20469;-83
2023/03/24 01:29:58;;;;;;;9.10;3.17;;;;;;;;;;6272029;22;20036;-83
2023/03/24 01:32:24;;;;;;;6.97;2.88;;;;;;;;;;6273380;22;20055;-82
2023/03/24 01:34:51;;;;;;;5.68;2.97;;;;;;;;;;6268955;22;20028;-83
2023/03/24 01:37:17;;;;;;;7.38;2.92;;;;;;;;;;6272807;22;20028;-83
2023/03/24 01:39:43;;;;;;;7.60;2.95;;;;;;;;;;6270547;22;20023;-83
2023/03/24 01:42:20;;;;;;;6.93;2.83;;;;;;;;;;6270126;22;20032;-82
2023/03/24 01:44:48;;;;;;;7.78;2.88;;;;;;;;;;6268231;22;20024;-83
2023/03/24 01:47:16;;;;;;;5.13;2.47;;;;;;;;;;6270385;22;20024;-83
2023/03/24 01:49:46;;;;;;;6.55;3.17;;;;;;;;;;6268226;22;20059;-83
2023/03/24 01:52:22;;;;;;;8.60;2.95;;;;;;;;;;6270874;22;20068;-83
2023/03/24 01:54:55;;;;;;;8.18;2.78;;;;;;;;;;6268392;22;20031;-83
2023/03/24 01:57:41;;;;;;;7.07;3.08;;;;;;;;;;6271554;22;20535;-83
2023/03/24 02:00:10;;;;;;;6.80;3.17;;;;;;;;;;6270049;22;20078;-83
2023/03/24 02:02:37;;;;;;;9.52;3.47;;;;;;;;;;6269722;22;20140;-83
2023/03/24 02:05:07;;;;;;;7.20;2.80;;;;;;;;;;6268889;22;20055;-82
2023/03/24 02:07:34;;;;;;;7.68;3.20;;;;;;;;;;6268375;22;20095;-82
2023/03/24 02:10:02;;;;;;;6.32;3.20;;;;;;;;;;6270182;22;20035;-83
2023/03/24 02:12:31;;;;;;;9.35;3.38;;;;;;;;;;6270794;22;20046;-82
2023/03/24 02:15:01;;;;;;;7.00;2.58;;;;;;;;;;6267803;22;20024;-82
2023/03/24 02:17:32;;;;;;;8.15;3.08;;;;;;;;;;6269085;22;20131;-83
2023/03/24 02:20:13;;;;;;;7.30;3.20;;;;;;;;;;6271357;22;20503;-83
2023/03/24 02:23:08;;;;;;;8.13;3.38;;;;;;;;;;6267277;22;20468;-82
2023/03/24 02:25:38;;;;;;;6.22;3.13;;;;;;;;;;6267430;22;20023;-84
2023/03/24 02:28:09;;;;;;;6.95;3.00;;;;;;;;;;6269048;22;20032;-82
2023/03/24 02:30:54;;;;;;;8.43;3.42;;;;;;;;;;6271413;22;20128;-82
2023/03/24 02:33:21;;;;;;;7.32;3.83;;;;;;;;;;6239955;22;20028;-82
2023/03/24 02:36:06;;;;;;;17.38;4.97;;;;;;;;;;6241242;22;20054;-82
2023/03/24 02:38:52;;;;;;;8.75;3.75;;;;;;;;;;6268093;22;20128;-82
2023/03/24 02:41:33;;;;;;;7.05;2.60;;;;;;;;;;6241718;22;20028;-82
2023/03/24 02:44:08;;;;;;;6.55;2.25;;;;;;;;;;6267290;22;20027;-82
2023/03/24 02:46:34;;;;;;;4.82;2.10;;;;;;;;;;6242020;22;20028;-83
2023/03/24 02:49:20;;;;;;;8.57;2.72;;;;;;;;;;6240829;22;20028;-83
2023/03/24 02:51:49;;;;;;;7.78;2.80;;;;;;;;;;6268972;22;20163;-81
2023/03/24 02:54:19;;;;;;;4.40;2.20;;;;;;;;;;6239704;22;20828;-82
2023/03/24 02:56:54;;;;;;;7.35;2.55;;;;;;;;;;6266946;22;20024;-82
2023/03/24 02:59:24;;;;;;;4.45;2.08;;;;;;;;;;6269101;22;20115;-83
2023/03/24 03:01:57;;;;;;;5.47;1.95;;;;;;;;;;6267653;22;20984;-83
2023/03/24 03:04:28;;;;;;;5.68;2.10;;;;;;;;;;6266619;22;20020;-82
2023/03/24 03:06:54;;;;;;;;;;;;;;;;;;6240912;22;20074;-83
2023/03/24 03:09:21;;;;;;;5.43;1.70;;;;;;;;;;6266253;22;45683;-83
2023/03/24 03:11:50;;;;;;;6.82;1.73;;;;;;;;;;6241304;22;20012;-82
2023/03/24 03:14:18;;;;;;;3.90;1.25;;;;;;;;;;6263742;22;20109;-82
2023/03/24 03:16:53;;;;;;;6.93;1.65;;;;;;;;;;6267324;22;20027;-81
2023/03/24 03:19:21;;;;;;;6.13;1.35;;;;;;;;;;6267383;22;20039;-82
2023/03/24 03:21:49;;;;;;;6.80;1.38;;;;;;;;;;6265556;22;20024;-82
2023/03/24 03:24:25;;;;;;;4.28;1.30;;;;;;;;;;6263184;22;20024;-82
2023/03/24 03:26:56;;;;;;;7.65;1.40;;;;;;;;;;6267518;22;20603;-82
2023/03/24 03:29:24;;;;;;;8.88;1.85;;;;;;;;;;6241424;22;20050;-81
2023/03/24 03:31:58;;;;;;;5.95;1.20;;;;;;;;;;6266849;22;20024;-82
2023/03/24 03:34:30;;;;;;;7.28;1.60;;;;;;;;;;6266373;22;20028;-82
2023/03/24 03:37:02;;;;;;;7.63;1.10;;;;;;;;;;6240172;22;20509;-81
2023/03/24 03:39:30;;;;;;;8.48;1.50;;;;;;;;;;6268050;22;20051;-82
2023/03/24 03:41:57;;;;;;;4.05;1.13;;;;;;;;;;6266028;22;20976;-81
2023/03/24 03:44:24;;;;;;;7.60;1.73;;;;;;;;;;6265499;22;20028;-83
2023/03/24 03:46:50;;;;;;;6.47;1.98;;;;;;;;;;6268466;22;20981;-83
2023/03/24 03:49:17;;;;;;;7.43;1.05;;;;;;;;;;6268717;22;20031;-82
2023/03/24 03:51:43;;;;;;;8.30;1.58;;;;;;;;;;6267139;22;20013;-82
2023/03/24 03:54:11;;;;;;;9.25;1.40;;;;;;;;;;6273174;22;20020;-81
2023/03/24 03:56:38;;;;;;;9.35;1.45;;;;;;;;;;6240286;22;20933;-82
2023/03/24 03:59:05;;;;;;;14.30;1.52;;;;;;;;;;6267832;22;20039;-84
2023/03/24 04:01:35;;;;;;;11.75;1.58;;;;;;;;;;6267221;22;20016;-83
2023/03/24 04:04:25;;;;;;;7.10;1.30;;;;;;;;;;6266624;22;20024;-83
2023/03/24 04:06:56;;;;;;;10.10;1.55;;;;;;;;;;6268534;22;20024;-84
2023/03/24 04:09:26;;;;;;;10.18;1.60;;;;;;;;;;6239643;22;20078;-83
2023/03/24 04:12:01;;;;;;;15.83;1.90;;;;;;;;;;6239861;22;20179;-83
2023/03/24 04:14:27;;;;;;;13.75;2.13;;;;;;;;;;6264170;22;20369;-82
2023/03/24 04:17:00;;;;;;;10.60;1.83;;;;;;;;;;6268113;22;20937;-84
2023/03/24 04:19:32;;;;;;;10.77;2.08;;;;;;;;;;6267468;22;20103;-83
2023/03/24 04:22:17;;;;;;;16.13;2.00;;;;;;;;;;6266866;22;20537;-83
2023/03/24 04:24:53;;;;;;;9.25;2.00;;;;;;;;;;6267518;22;20030;-83
2023/03/24 04:27:27;;;;;;;7.97;1.50;;;;;;;;;;6255595;22;20028;-83
2023/03/24 04:29:59;;;;;;;9.65;1.67;;;;;;;;;;6268718;22;20028;-83
2023/03/24 04:32:35;;;;;;;13.40;2.30;;;;;;;;;;6267912;22;20020;-82
2023/03/24 04:35:09;;;;;;;8.02;2.15;;;;;;;;;;6267122;22;20059;-83
2023/03/24 04:37:38;;;;;;;12.82;2.25;;;;;;;;;;6267153;22;20779;-83
2023/03/24 04:40:07;;;;;;;10.43;2.30;;;;;;;;;;6268327;22;20028;-83
2023/03/24 04:42:35;;;;;;;13.57;2.50;;;;;;;;;;6268903;22;20263;-83
2023/03/24 04:45:03;;;;;;;15.63;2.53;;;;;;;;;;6266948;22;20020;-82
2023/03/24 04:47:31;;;;;;;18.13;2.78;;;;;;;;;;6270958;22;20031;-83
2023/03/24 04:50:03;;;;;;;13.73;2.00;;;;;;;;;;6269157;22;20026;-83
2023/03/24 04:52:29;;;;;;;15.15;3.55;;;;;;;;;;6270038;22;20024;-83
2023/03/24 04:54:56;;;;;;;18.10;2.15;;;;;;;;;;6269552;22;20496;-82
2023/03/24 04:57:22;;;;;;;18.00;3.28;;;;;;;;;;6269169;22;20028;-82
2023/03/24 04:59:49;;;;;;;17.55;2.25;;;;;;;;;;6270075;22;20131;-82
2023/03/24 05:02:15;;;;;;;9.80;1.95;;;;;;;;;;6268562;22;20048;-82
2023/03/24 05:04:41;;;;;;;12.40;1.83;;;;;;;;;;6269921;22;20028;-82
2023/03/24 05:07:08;;;;;;;15.13;2.05;;;;;;;;;;6270128;22;20765;-83
2023/03/24 05:09:34;;;;;;;11.13;1.80;;;;;;;;;;6270571;22;20031;-83
2023/03/24 05:12:01;;;;;;;15.55;2.03;;;;;;;;;;6269928;22;20123;-83
2023/03/24 05:14:27;;;;;;;14.00;2.22;;;;;;;;;;6266678;22;20034;-82
2023/03/24 05:16:53;;;;;;;17.52;2.13;;;;;;;;;;6269734;22;20099;-83
2023/03/24 05:19:20;;;;;;;17.70;2.15;;;;;;;;;;6270307;22;20041;-84
2023/03/24 05:21:46;;;;;;;13.40;1.70;;;;;;;;;;6269068;22;20024;-83
2023/03/24 05:24:13;;;;;;;14.52;2.45;;;;;;;;;;6269461;22;20024;-83
2023/03/24 05:26:40;;;;;;;12.68;2.20;;;;;;;;;;6268319;22;20055;-83
2023/03/24 05:29:06;;;;;;;13.45;2.22;;;;;;;;;;6244353;22;21028;-82
2023/03/24 05:31:32;;;;;;;10.73;1.95;;;;;;;;;;6271276;22;20022;-82
2023/03/24 05:33:59;;;;;;;17.05;2.38;;;;;;;;;;6269298;22;20068;-83
2023/03/24 05:36:25;;;;;;;14.27;1.92;;;;;;;;;;6269391;22;20102;-83
2023/03/24 05:38:52;;;;;;;19.48;2.13;;;;;;;;;;6270343;22;20027;-84
2023/03/24 05:41:18;;;;;;;16.95;2.75;;;;;;;;;;6272775;22;20050;-83
2023/03/24 05:43:44;;;;;;;21.48;2.70;;;;;;;;;;6271122;22;20028;-82
2023/03/24 05:46:11;;;;;;;21.55;3.70;;;;;;;;;;6271309;22;20103;-83
2023/03/24 05:48:37;;;;;;;18.52;2.08;;;;;;;;;;6271708;22;20133;-82
2023/03/24 05:51:04;;;;;;;18.02;2.30;;;;;;;;;;6269062;22;20112;-82
2023/03/24 05:53:30;;;;;;;18.50;3.03;;;;;;;;;;6243801;22;20036;-82
2023/03/24 05:55:57;;;;;;;17.50;2.97;;;;;;;;;;6270728;22;20975;-82
2023/03/24 05:58:24;;;;;;;18.60;2.35;;;;;;;;;;6270918;22;20016;-83
2023/03/24 06:00:50;;;;;;;17.50;2.60;;;;;;;;;;6271764;22;20099;-83
2023/03/24 06:03:17;;;;;;;21.48;2.90;;;;;;;;;;6273364;22;20094;-83
2023/03/24 06:05:44;;;;;;;15.13;2.17;;;;;;;;;;6271201;22;20934;-83
2023/03/24 06:08:11;;;;;;;14.85;2.25;;;;;;;;;;6273886;22;20024;-83
2023/03/24 06:10:39;;;;;;;11.70;1.88;;;;;;;;;;6271284;22;20020;-82
2023/03/24 06:13:07;;;;;;;11.07;1.70;;;;;;;;;;6268698;22;20032;-83
2023/03/24 06:15:34;;;;;;;17.52;2.45;;;;;;;;;;6243436;22;20019;-83
2023/03/24 06:18:00;;;;;;;18.55;3.13;;;;;;;;;;6271935;22;20020;-83
2023/03/24 06:20:28;;;;;;;16.80;2.65;;;;;;;;;;6271545;22;20032;-83
2023/03/24 06:22:57;;;;;;;15.00;2.88;;;;;;;;;;6271707;22;20029;-83
2023/03/24 06:25:26;;;;;;;14.75;2.58;;;;;;;;;;6245792;22;20019;-83
2023/03/24 06:27:52;;;;;;;13.75;2.60;;;;;;;;;;6271508;22;21188;-82
2023/03/24 06:30:18;;;;;;;14.27;2.45;;;;;;;;;;6272496;22;20100;-82
2023/03/24 06:32:45;;;;;;;11.85;2.55;;;;;;;;;;6270424;22;20012;-82
2023/03/24 06:35:13;;;;;;;14.52;2.42;;;;;;;;;;6244321;22;20024;-82
2023/03/24 06:37:40;;;;;;;13.73;2.10;;;;;;;;;;6245127;22;20500;-83
2023/03/24 06:40:09;;;;;;;10.70;2.20;;;;;;;;;;6272269;22;20032;-83
2023/03/24 06:42:36;;;;;;;17.48;3.08;;;;;;;;;;6269598;22;20024;-83
2023/03/24 06:45:03;;;;;;;13.57;2.58;;;;;;;;;;6268014;22;20056;-83
2023/03/24 06:47:30;;;;;;;15.20;2.88;;;;;;;;;;6242487;22;20047;-83
2023/03/24 06:49:56;;;;;;;11.88;2.28;;;;;;;;;;6242232;22;20108;-82
2023/03/24 06:52:23;;;;;;;12.13;2.50;;;;;;;;;;6269913;22;20024;-82
2023/03/24 06:54:50;;;;;;;14.07;3.08;;;;;;;;;;6241092;22;20461;-83
2023/03/24 06:57:16;;;;;;;14.23;2.60;;;;;;;;;;6244194;22;20028;-83
2023/03/24 06:59:43;;;;;;;14.82;3.10;;;;;;;;;;6245223;22;20012;-82
2023/03/24 07:02:11;;;;;;;16.05;3.53;;;;;;;;;;6272786;22;20024;-82
2023/03/24 07:04:37;;;;;;;9.90;2.30;;;;;;;;;;6244184;22;20020;-82
2023/03/24 07:07:04;;;;;;;12.90;2.22;;;;;;;;;;6243726;22;20477;-82
2023/03/24 07:09:50;;;;;;;11.75;2.63;;;;;;;;;;6269922;22;20024;-83
2023/03/24 07:12:17;;;;;;;11.68;2.40;;;;;;;;;;6245263;22;20028;-82
2023/03/24 07:14:43;;;;;;;16.85;2.65;;;;;;;;;;6271363;22;20016;-83
2023/03/24 07:17:10;;;;;;;14.70;3.22;;;;;;;;;;6276353;22;20074;-83
2023/03/24 07:19:36;;;;;;;8.48;2.20;;;;;;;;;;6275986;22;20032;-84
2023/03/24 07:22:02;;;;;;;12.48;2.13;;;;;;;;;;6274722;22;20542;-83
2023/03/24 07:24:29;;;;;;;12.38;2.10;;;;;;;;;;6274016;22;20026;-83
2023/03/24 07:26:57;;;;;;;22.73;3.17;;;;;;;;;;6275956;22;20461;-83
2023/03/24 07:29:23;;;;;;;16.67;2.60;;;;;;;;;;6276721;22;21112;-83
2023/03/24 07:31:49;;;;;;;14.05;2.60;;;;;;;;;;6277175;22;20028;-83
2023/03/24 07:34:16;;;;;;;12.88;2.22;;;;;;;;;;6272930;22;20127;-83
2023/03/24 07:36:42;;;;;;;12.10;3.40;;;;;;;;;;6273577;22;20030;-83
2023/03/24 07:39:09;;;;;;;13.00;2.67;;;;;;;;;;6275041;22;20040;-82
2023/03/24 07:41:35;;;;;;;12.10;2.42;;;;;;;;;;6246698;22;20028;-84
2023/03/24 07:44:02;;;;;;;21.83;3.78;;;;;;;;;;6274530;22;20912;-83
2023/03/24 07:46:28;;;;;;;12.50;2.50;;;;;;;;;;6277953;22;20078;-83
2023/03/24 07:48:55;;;;;;;16.15;3.08;;;;;;;;;;6277448;22;20024;-83
2023/03/24 07:51:28;;;;;;;10.95;2.28;;;;;;;;;;6276557;22;20028;-84
2023/03/24 07:53:54;;;;;;;14.07;2.20;;;;;;;;;;6277242;22;20021;-83
2023/03/24 07:56:21;;;;;;;16.08;3.38;;;;;;;;;;6275187;22;20119;-83
2023/03/24 07:58:47;;;;;;;6.95;1.80;;;;;;;;;;6276762;22;20071;-83
2023/03/24 08:01:14;;;;;;;14.38;2.22;;;;;;;;;;6272183;22;20022;-82
2023/03/24 08:03:40;;;;;;;14.90;2.47;;;;;;;;;;6275773;22;20770;-83
2023/03/24 08:06:07;;;;;;;10.32;2.67;;;;;;;;;;6275444;22;20027;-83
2023/03/24 08:08:35;;;;;;;17.67;2.17;;;;;;;;;;6275375;22;20020;-83
2023/03/24 08:11:02;;;;;;;11.73;2.33;;;;;;;;;;6275894;22;20028;-84
2023/03/24 08:13:28;;;;;;;15.65;2.45;;;;;;;;;;6275570;22;20052;-81
2023/03/24 08:15:55;;;;;;;16.85;2.58;;;;;;;;;;6274423;22;20024;-81
2023/03/24 08:18:22;;;;;;;10.82;2.10;;;;;;;;;;6275017;22;20135;-82
2023/03/24 08:20:48;;;;;;;12.10;2.20;;;;;;;;;;6246846;22;20028;-82
2023/03/24 08:23:16;;;;;;;13.02;2.60;;;;;;;;;;6273272;22;20032;-82
2023/03/24 08:25:43;;;;;;;10.38;2.28;;;;;;;;;;6272127;22;20296;-81
2023/03/24 08:28:09;;;;;;;14.55;2.75;;;;;;;;;;6248496;22;20024;-80
2023/03/24 08:30:36;;;;;;;12.00;2.45;;;;;;;;;;6248611;22;20024;-81
2023/03/24 08:33:03;;;;;;;11.80;2.05;;;;;;;;;;6247380;22;20020;-82
2023/03/24 08:35:31;;;;;;;16.45;2.45;;;;;;;;;;6277061;22;20853;-82
2023/03/24 08:38:01;;;;;;;11.93;2.33;;;;;;;;;;6274481;22;21191;-82
2023/03/24 08:40:33;;;;;;;9.32;1.90;;;;;;;;;;6275724;22;20051;-81
2023/03/24 08:43:01;;;;;;;9.57;2.05;;;;;;;;;;6245999;22;20914;-81
2023/03/24 08:45:29;;;;;;;13.32;2.20;;;;;;;;;;6248078;22;20059;-81
2023/03/24 08:47:57;;;;;;;11.13;2.53;;;;;;;;;;6272747;22;20055;-81
2023/03/24 08:50:26;;;;;;;12.07;3.97;;;;;;;;;;6246406;22;20103;-81
2023/03/24 08:52:53;;;;;;;11.98;2.63;;;;;;;;;;6269958;22;20012;-81
2023/03/24 08:55:22;;;;;;;13.15;2.85;;;;;;;;;;6272204;22;20058;-81
2023/03/24 08:57:48;;;;;;;13.57;2.75;;;;;;;;;;6274328;22;20064;-80
2023/03/24 09:00:17;;;;;;;14.38;2.05;;;;;;;;;;6272080;22;20028;-80
2023/03/24 09:02:51;;;;;;;18.63;2.22;;;;;;;;;;6272249;22;20115;-81
2023/03/24 09:05:18;;;;;;;10.02;2.13;;;;;;;;;;6272309;22;20866;-81
2023/03/24 09:07:54;;;;;;;13.15;2.17;;;;;;;;;;6271618;22;20098;-81
2023/03/24 09:10:21;;;;;;;12.77;2.38;;;;;;;;;;6271281;22;20016;-81
2023/03/24 09:12:48;;;;;;;11.52;2.10;;;;;;;;;;6271339;22;20035;-81
2023/03/24 09:15:14;;;;;;;9.48;2.13;;;;;;;;;;6272334;22;20074;-81
2023/03/24 09:17:41;;;;;;;10.88;2.13;;;;;;;;;;6244460;22;20523;-81
2023/03/24 09:20:10;;;;;;;10.32;2.70;;;;;;;;;;6245870;22;20043;-81
2023/03/24 09:22:37;;;;;;;8.73;1.83;;;;;;;;;;6271798;22;20047;-81
2023/03/24 09:25:04;;;;;;;14.77;2.20;;;;;;;;;;6271933;22;20024;-81
2023/03/24 09:27:31;;;;;;;9.63;2.17;;;;;;;;;;6272022;22;20130;-81
2023/03/24 09:29:58;;;;;;;12.20;1.95;;;;;;;;;;6272285;22;20022;-81
2023/03/24 09:32:24;;;;;;;11.27;2.20;;;;;;;;;;6243851;22;20943;-81
2023/03/24 09:34:51;;;;;;;18.92;3.00;;;;;;;;;;6269118;22;20046;-82
2023/03/24 09:37:17;;;;;;;11.57;2.83;;;;;;;;;;6270505;22;20024;-82
2023/03/24 09:39:44;;;;;;;14.48;2.35;;;;;;;;;;6244146;22;20021;-82
2023/03/24 09:42:19;;;;;;;7.25;2.00;;;;;;;;;;6271208;22;20072;-81
2023/03/24 09:44:46;;;;;;;9.85;2.03;;;;;;;;;;6244749;22;20037;-81
2023/03/24 09:47:24;;;;;;;8.85;2.20;;;;;;;;;;6272048;22;20024;-81
2023/03/24 09:49:52;;;;;;;11.85;2.22;;;;;;;;;;6273040;22;20052;-81
2023/03/24 09:52:22;;;;;;;9.85;2.15;;;;;;;;;;6270972;22;20063;-82
2023/03/24 09:54:57;;;;;;;12.88;2.15;;;;;;;;;;6269383;22;20024;-81
2023/03/24 09:57:24;;;;;;;8.60;2.13;;;;;;;;;;6244678;22;20523;-81
2023/03/24 09:59:50;;;;;;;10.65;1.90;;;;;;;;;;6269213;22;20463;-81
2023/03/24 10:02:17;;;;;;;9.20;1.90;;;;;;;;;;6272025;22;20032;-81
2023/03/24 10:04:44;;;;;;;11.30;1.83;;;;;;;;;;6243369;22;20511;-81
2023/03/24 10:07:30;;;;;;;11.65;2.00;;;;;;;;;;6271684;22;20108;-81
2023/03/24 10:09:58;;;;;;;12.13;2.10;;;;;;;;;;6271206;22;20761;-81
2023/03/24 10:12:24;;;;;;;10.02;1.70;;;;;;;;;;6270699;22;20028;-81
2023/03/24 10:14:57;;;;;;;11.70;1.70;;;;;;;;;;6271385;22;20024;-81
2023/03/24 10:17:30;;;;;;;10.63;1.55;;;;;;;;;;6270983;22;20047;-81
2023/03/24 10:20:06;;;;;;;13.55;2.30;;;;;;;;;;6243740;22;20016;-81
2023/03/24 10:22:42;;;;;;;10.93;1.73;;;;;;;;;;6273861;22;20487;-81
2023/03/24 10:25:27;;;;;;;10.35;1.98;;;;;;;;;;6270473;22;20086;-81
2023/03/24 10:27:57;;;;;;;9.30;2.13;;;;;;;;;;6272472;22;20107;-81
2023/03/24 10:30:35;;;;;;;9.48;2.33;;;;;;;;;;6271470;22;20034;-82
2023/03/24 10:33:02;;;;;;;10.45;2.58;;;;;;;;;;6270968;22;20127;-81
2023/03/24 10:35:32;;;;;;;11.80;2.47;;;;;;;;;;6271815;22;20020;-81
2023/03/24 10:38:00;;;;;;;8.07;1.60;;;;;;;;;;6270745;22;20079;-81
2023/03/24 10:40:30;;;;;;;10.63;2.60;;;;;;;;;;6271691;22;20036;-81
2023/03/24 10:43:00;;;;;;;9.63;1.83;;;;;;;;;;6270926;22;20102;-81
2023/03/24 10:45:35;;;;;;;10.68;2.30;;;;;;;;;;6269510;22;20036;-81
2023/03/24 10:48:03;;;;;;;8.05;2.10;;;;;;;;;;6244070;22;20463;-81
2023/03/24 10:50:30;;;;;;;11.77;2.30;;;;;;;;;;6270796;22;20027;-81
2023/03/24 10:52:57;;;;;;;10.27;1.80;;;;;;;;;;6244797;22;20032;-80
2023/03/24 10:55:30;;;;;;;8.40;1.88;;;;;;;;;;6269644;22;20027;-81
2023/03/24 10:57:57;;;;;;;11.82;1.90;;;;;;;;;;6272422;22;20040;-81
2023/03/24 11:00:28;;;;;;;12.60;2.10;;;;;;;;;;6271474;22;20055;-82
2023/03/24 11:02:59;;;;;;;8.98;2.05;;;;;;;;;;6244109;22;20024;-81
2023/03/24 11:05:29;;;;;;;12.00;1.80;;;;;;;;;;6244027;22;20078;-81
2023/03/24 11:07:58;;;;;;;13.02;2.33;;;;;;;;;;6272293;22;20106;-80
2023/03/24 11:10:25;;;;;;;10.77;1.90;;;;;;;;;;6269227;22;20031;-81
2023/03/24 11:12:51;;;;;;;11.98;2.08;;;;;;;;;;6268773;22;20035;-80
2023/03/24 11:15:18;;;;;;;7.75;2.17;;;;;;;;;;6269280;22;20028;-81
2023/03/24 11:17:52;;;;;;;9.68;2.05;;;;;;;;;;6270945;22;20020;-80
2023/03/24 11:20:23;;;;;;;7.85;1.67;;;;;;;;;;6270194;22;20272;-80
2023/03/24 11:22:58;;;;;;;8.43;1.77;;;;;;;;;;6270081;22;20790;-81
2023/03/24 11:25:25;;;;;;;11.05;2.35;;;;;;;;;;6270460;22;20107;-81
2023/03/24 11:27:56;;;;;;;10.23;1.73;;;;;;;;;;6271474;22;20032;-80
2023/03/24 11:30:23;;;;;;;7.22;1.67;;;;;;;;;;6270717;22;20381;-81
2023/03/24 11:32:49;;;;;;;9.23;1.80;;;;;;;;;;6268766;22;20034;-80
2023/03/24 11:35:17;;;;;;;11.80;1.90;;;;;;;;;;6272440;22;20812;-80
2023/03/24 11:37:44;;;;;;;10.80;1.67;;;;;;;;;;6271441;22;20091;-80
2023/03/24 11:40:11;;;;;;;6.75;1.50;;;;;;;;;;6272408;22;20028;-81
2023/03/24 11:42:42;;;;;;;9.15;1.60;;;;;;;;;;6270547;22;20056;-80
2023/03/24 11:45:28;;;;;;;6.20;1.40;;;;;;;;;;6272172;22;20020;-80
2023/03/24 11:47:56;;;;;;;6.07;1.48;;;;;;;;;;6271623;22;20030;-80
2023/03/24 11:50:27;;;;;;;12.38;1.88;;;;;;;;;;6270450;22;20032;-80
2023/03/24 11:52:58;;;;;;;8.20;1.60;;;;;;;;;;6268800;22;20051;-80
2023/03/24 11:55:34;;;;;;;5.63;1.42;;;;;;;;;;6270881;22;20485;-80
2023/03/24 11:58:03;;;;;;;9.63;1.90;;;;;;;;;;6244738;22;20071;-82
2023/03/24 12:00:47;;;;;;;6.63;1.60;;;;;;;;;;6270072;22;20012;-81
2023/03/24 12:03:16;;;;;;;9.10;1.40;;;;;;;;;;6268560;22;20477;-80
2023/03/24 12:06:03;;;;;;;11.20;2.10;;;;;;;;;;6270144;22;20020;-80
2023/03/24 12:08:50;;;;;;;5.45;1.50;;;;;;;;;;6270236;22;20339;-81
2023/03/24 12:11:21;;;;;;;8.10;1.60;;;;;;;;;;6229266;22;20028;-80
2023/03/24 12:13:48;;;;;;;7.55;1.65;;;;;;;;;;6271299;22;20406;-80
2023/03/24 12:16:20;;;;;;;8.80;1.70;;;;;;;;;;6272381;22;20028;-80
2023/03/24 12:18:47;;;;;;;11.05;1.90;;;;;;;;;;6245063;22;20205;-80
2023/03/24 12:21:18;;;;;;;11.95;2.20;;;;;;;;;;6271870;22;20024;-80
2023/03/24 12:23:58;;;;;;;7.80;1.45;;;;;;;;;;6268617;22;20465;-80
2023/03/24 12:26:29;;;;;;;8.57;1.40;;;;;;;;;;6269010;22;20020;-80
2023/03/24 12:28:57;;;;;;;7.55;1.58;;;;;;;;;;6268567;22;20042;-81
2023/03/24 12:31:38;;;;;;;10.07;1.63;;;;;;;;;;6242986;22;20079;-80
2023/03/24 12:34:04;;;;;;;6.20;1.30;;;;;;;;;;6267815;22;20031;-80
2023/03/24 12:36:43;;;;;;;9.18;1.60;;;;;;;;;;6271141;22;20909;-81
2023/03/24 12:39:12;;;;;;;8.02;1.35;;;;;;;;;;6269868;22;20103;-81
2023/03/24 12:41:39;;;;;;;6.07;1.38;;;;;;;;;;6242557;22;20035;-81
2023/03/24 12:44:37;;;;;;;7.07;1.40;;;;;;;;;;6267049;22;20025;-81
2023/03/24 12:47:10;;;;;;;8.30;1.25;;;;;;;;;;6185715;22;20024;-80
2023/03/24 12:49:39;;;;;;;6.25;1.20;;;;;;;;;;6270161;22;20473;-81
2023/03/24 12:52:13;;;;;;;8.40;1.70;;;;;;;;;;6269188;22;20016;-81
2023/03/24 12:54:49;;;;;;;8.85;1.40;;;;;;;;;;6268131;22;20023;-81
2023/03/24 12:57:17;;;;;;;4.82;1.15;;;;;;;;;;6268681;22;20033;-81
2023/03/24 12:59:50;;;;;;;7.05;1.45;;;;;;;;;;6269221;22;20103;-80
2023/03/24 13:02:30;;;;;;;7.97;1.10;;;;;;;;;;6267820;22;20012;-81
2023/03/24 13:05:03;;;;;;;6.80;1.27;;;;;;;;;;6266906;22;20024;-81
2023/03/24 13:07:42;;;;;;;9.90;1.58;;;;;;;;;;6270251;22;20035;-81
2023/03/24 13:10:12;;;;;;;6.32;1.55;;;;;;;;;;6268013;22;20035;-81
2023/03/24 13:12:48;;;;;;;9.40;1.83;;;;;;;;;;6266920;22;20030;-80
2023/03/24 13:15:17;;;;;;;5.65;1.42;;;;;;;;;;6243320;22;20020;-81
2023/03/24 13:17:49;;;;;;;8.73;1.67;;;;;;;;;;6270249;22;20032;-82
2023/03/24 13:20:22;;;;;;;11.55;1.60;;;;;;;;;;6271060;22;20034;-82
2023/03/24 13:22:50;;;;;;;10.07;1.50;;;;;;;;;;6270887;22;20016;-82
2023/03/24 13:25:21;;;;;;;8.25;1.60;;;;;;;;;;6270108;22;20112;-82
2023/03/24 13:27:49;;;;;;;10.13;1.92;;;;;;;;;;6267625;22;20029;-81
2023/03/24 13:30:25;;;;;;;11.32;2.30;;;;;;;;;;6242912;22;20032;-81
2023/03/24 13:32:53;;;;;;;4.18;1.35;;;;;;;;;;6243206;22;20471;-82
2023/03/24 13:35:29;;;;;;;9.00;1.83;;;;;;;;;;6242142;22;20476;-82
2023/03/24 13:38:00;;;;;;;8.48;1.63;;;;;;;;;;6266446;22;20032;-82
2023/03/24 13:40:28;;;;;;;8.07;1.75;;;;;;;;;;6271415;22;20365;-82
2023/03/24 13:42:59;;;;;;;7.25;1.42;;;;;;;;;;6268681;22;20365;-82
2023/03/24 13:45:28;;;;;;;10.00;1.73;;;;;;;;;;6270543;22;20020;-81
2023/03/24 13:48:04;;;;;;;7.13;1.48;;;;;;;;;;6269264;22;20020;-82
2023/03/24 13:50:37;;;;;;;12.10;2.88;;;;;;;;;;6270974;22;20020;-82
2023/03/24 13:53:13;;;;;;;10.07;1.52;;;;;;;;;;6269296;22;20028;-82
2023/03/24 13:55:45;;;;;;;9.43;1.38;;;;;;;;;;6270149;22;20017;-81
2023/03/24 13:58:17;;;;;;;6.78;1.60;;;;;;;;;;6269480;22;20028;-82
2023/03/24 14:01:17;;;;;;;6.88;1.20;;;;;;;;;;6268862;22;20024;-81
2023/03/24 14:03:44;;;;;;;10.65;1.30;;;;;;;;;;6185830;22;20028;-82
2023/03/24 14:06:15;;;;;;;4.40;1.30;;;;;;;;;;6242220;22;20028;-81
2023/03/24 14:08:50;;;;;;;10.90;1.90;;;;;;;;;;6243144;22;20024;-82
2023/03/24 14:11:29;;;;;;;9.45;1.25;;;;;;;;;;6268508;22;20513;-81
2023/03/24 14:14:04;;;;;;;7.18;1.45;;;;;;;;;;6267984;22;20034;-81
2023/03/24 14:16:42;;;;;;;5.03;0.90;;;;;;;;;;6272844;22;20131;-82
2023/03/24 14:19:37;;;;;;;6.20;1.30;;;;;;;;;;6273232;22;20067;-83
2023/03/24 14:22:10;;;;;;;3.47;0.80;;;;;;;;;;6231310;22;20079;-83
2023/03/24 14:24:40;;;;;;;7.22;0.95;;;;;;;;;;6273684;22;20749;-83
2023/03/24 14:27:22;;;;;;;5.88;0.82;;;;;;;;;;6271461;22;21218;-83
2023/03/24 14:29:54;;;;;;;5.15;1.05;;;;;;;;;;6243286;22;20028;-83
2023/03/24 14:32:21;;;;;;;4.70;1.02;;;;;;;;;;6245787;22;20034;-84
2023/03/24 14:34:53;;;;;;;6.00;1.00;;;;;;;;;;6244528;22;20487;-84
2023/03/24 14:37:20;;;;;;;5.25;0.85;;;;;;;;;;6271453;22;20822;-83
2023/03/24 14:39:48;;;;;;;4.07;0.70;;;;;;;;;;6269526;22;20024;-83
2023/03/24 14:42:40;;;;;;;6.55;0.90;;;;;;;;;;6269062;22;20030;-83
2023/03/24 14:45:25;;;;;;;6.25;0.88;;;;;;;;;;6209219;22;20027;-83
2023/03/24 14:47:58;;;;;;;4.00;0.73;;;;;;;;;;6269409;22;20111;-83
2023/03/24 14:50:25;;;;;;;3.40;0.80;;;;;;;;;;6268962;22;20020;-84
2023/03/24 14:52:54;;;;;;;4.78;1.00;;;;;;;;;;6269678;22;20469;-83
2023/03/24 14:55:20;;;;;;;7.93;1.60;;;;;;;;;;6242708;22;20350;-83